Terminal Aerodrome Forecast
Issued by NWS

Home | Current Version | Previous Version | Text Only | Print | Product List | Glossary On
Versions: 1 2 3 4 5 6 7 8 9 10 11 12 13 14 15 16 17 18 19 20 21 22 23 24 25 26 27 28 29 30 31 32 33 34 35 36 37 38
000
FTUS45 KGJT 251735
TAFRIL
TAF
KRIL 251735Z 2518/2618 28008KT P6SM SCT100 BKN150
     FM251900 24009KT P6SM VCSH SCT090 BKN120
     FM260200 09006KT P6SM VCTS SCT080CB BKN140
     FM260500 11004KT P6SM FEW100 SCT150
     FM261600 05003KT P6SM SKC=

USA.gov is the U.S. government's official web portal to all federal, state and local government web resources and services.